createdAt,value
2018-06-19T00:01:16.247Z,2.00
2018-06-19T00:03:43.829Z,3.20
2018-06-19T00:06:11.271Z,2.53
2018-06-19T00:08:38.721Z,2.40
2018-06-19T00:11:06.119Z,2.28
2018-06-19T00:13:33.569Z,2.55
2018-06-19T00:16:01.031Z,2.55
2018-06-19T00:18:28.493Z,2.62
2018-06-19T00:20:55.940Z,1.90
2018-06-19T00:23:23.375Z,1.98
2018-06-19T00:25:50.839Z,2.60
2018-06-19T00:28:18.291Z,2.37
2018-06-19T00:30:45.757Z,2.15
2018-06-19T00:33:13.398Z,2.55
2018-06-19T00:35:40.880Z,2.72
2018-06-19T00:38:08.288Z,2.22
2018-06-19T00:40:35.726Z,2.22
2018-06-19T00:43:03.183Z,3.55
2018-06-19T00:45:30.593Z,2.75
2018-06-19T00:47:58.083Z,2.83
2018-06-19T00:50:25.493Z,2.78
2018-06-19T00:52:53.110Z,3.42
2018-06-19T00:55:21.079Z,2.80
2018-06-19T00:57:48.511Z,2.37
2018-06-19T01:00:16.009Z,2.33
2018-06-19T01:02:43.478Z,2.30
2018-06-19T01:05:10.946Z,2.42
2018-06-19T01:07:38.460Z,2.72
2018-06-19T01:10:05.922Z,2.90
2018-06-19T01:12:33.464Z,2.60
2018-06-19T01:15:00.923Z,2.40
2018-06-19T01:17:28.371Z,2.10
2018-06-19T01:19:55.793Z,3.12
2018-06-19T01:22:23.241Z,2.20
2018-06-19T01:24:50.692Z,3.30
2018-06-19T01:27:18.302Z,3.03
2018-06-19T01:29:45.750Z,3.22
2018-06-19T01:32:13.472Z,2.65
2018-06-19T01:34:41.044Z,2.95
2018-06-19T01:37:08.494Z,3.08
2018-06-19T01:39:35.907Z,2.40
2018-06-19T01:42:03.347Z,2.30
2018-06-19T01:44:30.822Z,2.40
2018-06-19T01:46:58.270Z,4.20
2018-06-19T01:49:25.751Z,2.42
2018-06-19T01:51:53.195Z,2.45
2018-06-19T01:54:20.786Z,2.42
2018-06-19T01:56:48.245Z,1.73
2018-06-19T01:59:15.673Z,2.25
2018-06-19T02:01:43.125Z,2.35
2018-06-19T02:04:10.543Z,2.95
2018-06-19T02:06:38.003Z,1.98
2018-06-19T02:09:05.435Z,2.72
2018-06-19T02:11:33.009Z,2.08
2018-06-19T02:14:00.422Z,2.85
2018-06-19T02:16:27.832Z,3.10
2018-06-19T02:18:55.258Z,2.75
2018-06-19T02:21:22.893Z,2.30
2018-06-19T02:23:50.348Z,2.62
2018-06-19T02:26:17.782Z,3.45
2018-06-19T02:28:45.252Z,3.60
2018-06-19T02:31:12.724Z,3.37
2018-06-19T02:33:40.348Z,5.10
2018-06-19T02:36:07.816Z,4.90
2018-06-19T02:38:35.256Z,4.12
2018-06-19T02:41:03.746Z,3.95
2018-06-19T02:43:31.189Z,3.25
2018-06-19T02:45:58.658Z,3.83
2018-06-19T02:48:26.057Z,3.75
2018-06-19T02:50:53.495Z,4.35
2018-06-19T02:53:21.120Z,3.80
2018-06-19T02:55:48.674Z,3.35
2018-06-19T02:58:16.108Z,4.85
2018-06-19T03:00:43.626Z,4.72
2018-06-19T03:03:11.036Z,5.07
2018-06-19T03:05:39.067Z,3.17
2018-06-19T03:08:06.477Z,3.30
2018-06-19T03:10:34.037Z,4.03
2018-06-19T03:13:01.438Z,4.07
2018-06-19T03:15:28.983Z,3.70
2018-06-19T03:17:56.434Z,4.78
2018-06-19T03:20:23.886Z,4.15
2018-06-19T03:22:51.398Z,4.15
2018-06-19T03:25:18.840Z,4.40
2018-06-19T03:27:46.297Z,3.50
2018-06-19T03:30:13.801Z,3.17
2018-06-19T03:32:41.292Z,3.60
2018-06-19T03:35:08.753Z,4.10
2018-06-19T03:37:36.181Z,4.28
2018-06-19T03:40:03.763Z,3.30
2018-06-19T03:42:31.236Z,3.58
2018-06-19T03:44:58.672Z,3.37
2018-06-19T03:47:26.163Z,4.05
2018-06-19T03:49:53.586Z,3.67
2018-06-19T03:52:21.054Z,4.55
2018-06-19T03:54:48.505Z,3.20
2018-06-19T03:57:15.952Z,4.00
2018-06-19T03:59:43.433Z,4.70
2018-06-19T04:02:10.862Z,3.55
2018-06-19T04:04:38.393Z,3.42
2018-06-19T04:07:05.793Z,3.80
2018-06-19T04:09:33.243Z,4.12
2018-06-19T04:12:00.706Z,3.15
2018-06-19T04:14:28.182Z,4.75
2018-06-19T04:16:55.958Z,3.90
2018-06-19T04:19:23.399Z,4.05
2018-06-19T04:21:50.809Z,2.80
2018-06-19T04:24:18.236Z,3.50
2018-06-19T04:26:45.646Z,5.93
2018-06-19T04:29:13.566Z,3.22
2018-06-19T04:31:41.056Z,4.87
2018-06-19T04:34:08.554Z,5.05
2018-06-19T04:36:36.015Z,3.80
2018-06-19T04:39:03.446Z,3.62
2018-06-19T04:41:30.955Z,2.72
2018-06-19T04:43:58.386Z,2.83
2018-06-19T04:46:25.833Z,3.20
2018-06-19T04:48:53.286Z,3.10
2018-06-19T04:51:20.771Z,2.87
2018-06-19T04:53:48.822Z,3.20
2018-06-19T04:56:16.340Z,2.00
2018-06-19T04:58:43.897Z,3.17
2018-06-19T05:01:11.503Z,2.87
2018-06-19T05:03:38.951Z,2.97
2018-06-19T05:06:06.367Z,3.65
2018-06-19T05:08:34.807Z,2.60
2018-06-19T05:11:02.280Z,3.28
2018-06-19T05:13:29.747Z,3.12
2018-06-19T05:15:57.216Z,5.03
2018-06-19T05:18:24.682Z,2.30
2018-06-19T05:20:52.090Z,3.20
2018-06-19T05:23:19.657Z,2.92
2018-06-19T05:25:47.079Z,2.50
2018-06-19T05:28:14.672Z,2.28
2018-06-19T05:30:42.107Z,2.45
2018-06-19T05:33:09.576Z,2.95
2018-06-19T05:35:37.001Z,2.60
2018-06-19T05:38:04.594Z,2.50
2018-06-19T05:40:32.005Z,2.85
2018-06-19T05:42:59.484Z,2.30
2018-06-19T05:45:26.969Z,2.75
2018-06-19T05:47:54.643Z,2.47
2018-06-19T05:50:22.078Z,2.95
2018-06-19T05:52:49.620Z,2.50
2018-06-19T05:55:17.709Z,3.08
2018-06-19T05:57:45.188Z,2.60
2018-06-19T06:00:12.800Z,3.97
2018-06-19T06:02:40.232Z,2.55
2018-06-19T06:05:07.689Z,2.50
2018-06-19T06:07:35.187Z,3.35
2018-06-19T06:10:02.663Z,3.22
2018-06-19T06:12:30.263Z,2.12
2018-06-19T06:14:57.825Z,3.40
2018-06-19T06:17:25.388Z,4.30
2018-06-19T06:19:52.996Z,2.30
2018-06-19T06:22:20.470Z,2.92
2018-06-19T06:24:47.973Z,3.05
2018-06-19T06:27:15.407Z,2.22
2018-06-19T06:29:43.008Z,2.75
2018-06-19T06:32:10.428Z,3.35
2018-06-19T06:34:37.886Z,2.83
2018-06-19T06:37:05.408Z,3.50
2018-06-19T06:39:32.850Z,3.08
2018-06-19T06:42:00.316Z,3.53
2018-06-19T06:44:28.029Z,2.70
2018-06-19T06:46:55.517Z,2.87
2018-06-19T06:49:22.914Z,2.83
2018-06-19T06:51:50.578Z,2.75
2018-06-19T06:54:18.218Z,2.60
2018-06-19T06:56:45.712Z,2.78
2018-06-19T06:59:13.296Z,3.53
2018-06-19T07:01:40.744Z,2.62
2018-06-19T07:04:08.289Z,3.53
2018-06-19T07:06:35.771Z,2.67
2018-06-19T07:09:03.206Z,3.15
2018-06-19T07:11:30.751Z,2.37
2018-06-19T07:13:58.277Z,2.55
2018-06-19T07:16:25.781Z,2.60
2018-06-19T07:18:53.471Z,2.47
2018-06-19T07:21:21.117Z,1.92
2018-06-19T07:23:49.031Z,2.58
2018-06-19T07:26:16.808Z,3.17
2018-06-19T07:28:44.757Z,2.40
2018-06-19T07:31:14.806Z,2.12
2018-06-19T07:33:42.381Z,2.50
2018-06-19T07:36:09.847Z,2.58
2018-06-19T07:38:37.315Z,3.00
2018-06-19T07:41:05.156Z,3.10
2018-06-19T07:43:32.833Z,2.10
2018-06-19T07:46:00.370Z,2.35
2018-06-19T07:48:27.804Z,2.50
2018-06-19T07:50:55.342Z,3.05
2018-06-19T07:53:22.932Z,2.67
2018-06-19T07:55:50.342Z,3.75
2018-06-19T07:58:17.839Z,3.03
2018-06-19T08:00:45.301Z,3.30
2018-06-19T08:03:12.730Z,3.60
2018-06-19T08:05:40.171Z,2.87
2018-06-19T08:08:07.628Z,4.47
2018-06-19T08:10:35.205Z,3.47
2018-06-19T08:13:02.703Z,3.40
2018-06-19T08:15:30.199Z,2.95
2018-06-19T08:17:57.684Z,3.30
2018-06-19T08:20:25.344Z,3.72
2018-06-19T08:22:52.798Z,3.85
2018-06-19T08:25:20.219Z,3.37
2018-06-19T08:27:48.820Z,3.33
2018-06-19T08:30:16.457Z,3.60
2018-06-19T08:32:43.884Z,3.10
2018-06-19T08:40:05.488Z,4.65
2018-06-19T08:42:32.963Z,3.03
2018-06-19T08:45:00.493Z,3.78
2018-06-19T08:47:28.027Z,3.03
2018-06-19T08:49:55.491Z,3.25
2018-06-19T08:52:23.151Z,4.50
2018-06-19T08:54:50.579Z,3.12
2018-06-19T08:57:18.022Z,3.08
2018-06-19T08:59:45.505Z,3.28
2018-06-19T09:02:13.037Z,3.20
2018-06-19T09:04:40.645Z,2.75
2018-06-19T09:07:08.170Z,3.78
2018-06-19T09:09:35.564Z,5.25
2018-06-19T09:12:03.114Z,3.55
2018-06-19T09:14:30.552Z,4.00
2018-06-19T09:16:58.109Z,3.55
2018-06-19T09:19:25.811Z,4.72
2018-06-19T09:21:53.251Z,4.50
2018-06-19T09:24:20.800Z,2.67
2018-06-19T09:26:48.276Z,5.30
2018-06-19T09:29:16.158Z,3.20
2018-06-19T09:31:43.612Z,4.05
2018-06-19T09:34:11.054Z,3.85
2018-06-19T09:36:38.593Z,3.75
2018-06-19T09:39:06.084Z,3.95
2018-06-19T09:41:33.519Z,4.80
2018-06-19T09:44:01.157Z,3.53
2018-06-19T09:46:28.928Z,3.62
2018-06-19T09:48:57.341Z,5.05
2018-06-19T09:51:24.836Z,4.00
2018-06-19T09:53:52.540Z,2.70
2018-06-19T09:56:20.114Z,4.90
2018-06-19T10:06:09.101Z,4.00
2018-06-19T10:08:36.578Z,3.90
2018-06-19T10:11:04.133Z,4.13
2018-06-19T10:23:20.174Z,4.20
2018-06-19T10:25:47.755Z,5.00
2018-06-19T10:45:24.774Z,4.90
2018-06-19T10:52:46.373Z,5.05
2018-06-19T11:09:55.940Z,4.00
2018-06-19T11:14:50.368Z,60.38
2018-06-19T11:17:17.828Z,4.30
2018-06-19T11:19:45.441Z,88.35
2018-06-19T11:22:12.850Z,81.07
2018-06-19T11:24:40.334Z,76.95
2018-06-19T11:27:07.925Z,74.00
2018-06-19T11:29:35.372Z,4.87
2018-06-19T11:32:02.982Z,5.78
2018-06-19T11:34:30.491Z,5.20
2018-06-19T11:36:57.954Z,5.05
2018-06-19T11:39:25.424Z,5.43
2018-06-19T11:41:53.077Z,4.30
2018-06-19T11:44:20.534Z,7.75
2018-06-19T11:46:48.123Z,5.40
2018-06-19T11:49:15.588Z,26.55
2018-06-19T11:51:43.138Z,4.80
2018-06-19T11:54:10.619Z,6.30
2018-06-19T11:56:38.233Z,6.00
2018-06-19T11:59:06.244Z,6.10
2018-06-19T12:04:01.264Z,4.62
2018-06-19T12:06:28.708Z,5.12
2018-06-19T12:08:56.290Z,5.75
2018-06-19T12:11:23.796Z,7.07
2018-06-19T12:13:51.350Z,6.75
2018-06-19T12:16:18.826Z,6.35
2018-06-19T12:18:46.321Z,5.62
2018-06-19T12:21:13.783Z,6.00
2018-06-19T12:23:41.244Z,6.37
2018-06-19T12:26:08.673Z,6.12
2018-06-19T12:28:36.080Z,6.60
2018-06-19T12:31:03.579Z,5.75
2018-06-19T12:33:31.189Z,7.00
2018-06-19T12:35:58.712Z,9.18
2018-06-19T12:38:26.295Z,7.70
2018-06-19T12:40:53.765Z,6.50
2018-06-19T12:43:21.302Z,8.15
2018-06-19T12:45:48.764Z,6.50
2018-06-19T12:48:16.208Z,6.75
2018-06-19T12:53:52.367Z,3.90
2018-06-19T12:56:19.821Z,8.00
2018-06-19T12:58:47.254Z,7.68
2018-06-19T13:01:14.659Z,8.50
2018-06-19T13:03:53.784Z,8.55
2018-06-19T13:06:27.249Z,7.43
2018-06-19T13:08:54.759Z,53.95
2018-06-19T13:11:22.368Z,50.72
2018-06-19T13:14:02.031Z,58.67
2018-06-19T13:19:43.967Z,40.12
2018-06-19T13:22:11.713Z,60.25
2018-06-19T13:24:39.143Z,63.50
2018-06-19T13:27:07.099Z,58.00
2018-06-19T13:32:37.318Z,38.60
2018-06-19T13:35:04.791Z,62.78
2018-06-19T13:37:32.241Z,64.18
2018-06-19T13:39:59.748Z,66.45
2018-06-19T13:45:38.322Z,41.13
2018-06-19T13:48:05.782Z,66.03
2018-06-19T13:50:33.259Z,63.85
2018-06-19T13:53:01.163Z,59.28
2018-06-19T13:58:45.517Z,46.05
2018-06-19T14:01:12.980Z,64.20
2018-06-19T14:03:40.451Z,64.60
2018-06-19T14:06:07.940Z,65.65
2018-06-19T14:08:35.770Z,71.43
2018-06-19T14:14:01.041Z,44.88
2018-06-19T14:16:29.063Z,65.22
2018-06-19T14:18:56.661Z,72.20
2018-06-19T14:21:24.164Z,65.07
2018-06-19T14:23:51.675Z,69.97
2018-06-19T14:26:19.158Z,66.47
2018-06-19T14:28:46.740Z,74.50
2018-06-19T14:31:14.219Z,75.37
2018-06-19T14:33:41.653Z,78.53
2018-06-19T14:36:09.303Z,74.55
2018-06-19T14:38:36.806Z,75.12
2018-06-19T14:41:09.716Z,78.10
2018-06-19T14:43:37.246Z,74.57
2018-06-19T14:46:04.705Z,84.00
2018-06-19T14:48:32.247Z,73.10
2018-06-19T14:50:59.756Z,77.10
2018-06-19T14:53:27.223Z,6.10
2018-06-19T14:55:54.745Z,8.40
2018-06-19T14:58:22.389Z,11.40
2018-06-19T15:00:49.919Z,6.18
2018-06-19T15:03:17.449Z,8.88
2018-06-19T15:05:44.970Z,9.20
2018-06-19T15:08:12.622Z,8.18
2018-06-19T15:10:40.116Z,7.50
2018-06-19T15:13:07.605Z,8.00
2018-06-19T15:15:35.122Z,8.70
2018-06-19T15:18:02.552Z,7.78
2018-06-19T15:20:30.244Z,9.63
2018-06-19T15:22:57.725Z,6.45
2018-06-19T15:25:25.227Z,5.25
2018-06-19T15:27:52.694Z,5.70
2018-06-19T15:30:20.218Z,5.28
2018-06-19T15:32:47.709Z,5.28
2018-06-19T15:35:15.348Z,6.72
2018-06-19T15:37:42.943Z,7.00
2018-06-19T15:40:10.382Z,5.85
2018-06-19T15:42:38.034Z,6.40
2018-06-19T15:45:05.469Z,7.80
2018-06-19T15:47:33.177Z,7.57
2018-06-19T15:50:00.700Z,6.07
2018-06-19T15:52:28.199Z,5.37
2018-06-19T15:54:55.657Z,5.90
2018-06-19T15:57:23.170Z,5.25
2018-06-19T15:59:50.616Z,4.80
2018-06-19T16:02:18.091Z,3.90
2018-06-19T16:04:45.584Z,5.62
2018-06-19T16:07:13.057Z,5.35
2018-06-19T16:09:40.643Z,5.62
2018-06-19T16:12:08.103Z,4.30
2018-06-19T16:14:36.169Z,5.25
2018-06-19T16:17:03.595Z,4.60
2018-06-19T16:19:31.155Z,4.32
2018-06-19T16:21:58.628Z,5.65
2018-06-19T16:24:26.186Z,5.50
2018-06-19T16:26:53.821Z,6.05
2018-06-19T16:29:21.369Z,4.37
2018-06-19T16:31:48.772Z,5.00
2018-06-19T16:34:16.250Z,5.05
2018-06-19T16:36:43.805Z,3.78
2018-06-19T16:39:11.310Z,3.92
2018-06-19T16:41:38.832Z,4.30
2018-06-19T16:44:06.335Z,5.90
2018-06-19T16:46:33.835Z,8.30
2018-06-19T16:49:01.434Z,5.20
2018-06-19T16:51:28.894Z,4.45
2018-06-19T16:53:56.321Z,4.75
2018-06-19T16:56:23.821Z,5.57
2018-06-19T16:58:51.316Z,5.00
2018-06-19T17:01:19.161Z,6.05
2018-06-19T17:03:46.702Z,5.28
2018-06-19T17:06:14.147Z,4.80
2018-06-19T17:08:41.616Z,4.87
2018-06-19T17:11:09.092Z,6.37
2018-06-19T17:13:36.630Z,5.93
2018-06-19T17:16:04.034Z,6.05
2018-06-19T17:18:31.607Z,7.03
2018-06-19T17:20:59.123Z,7.05
2018-06-19T17:23:26.728Z,6.85
2018-06-19T17:25:54.278Z,7.05
2018-06-19T17:28:21.876Z,6.87
2018-06-19T17:30:49.314Z,6.45
2018-06-19T17:33:16.781Z,6.15
2018-06-19T17:35:44.217Z,7.15
2018-06-19T17:38:11.781Z,6.57
2018-06-19T17:40:40.496Z,8.10
2018-06-19T17:43:07.998Z,7.97
2018-06-19T17:45:35.516Z,7.30
2018-06-19T17:48:02.936Z,5.37
2018-06-19T17:50:30.353Z,5.45
2018-06-19T17:52:57.787Z,4.97
2018-06-19T17:55:25.951Z,6.30
2018-06-19T17:57:59.356Z,6.40
2018-06-19T18:00:26.815Z,5.35
2018-06-19T18:02:54.229Z,6.28
2018-06-19T18:05:21.705Z,6.12
2018-06-19T18:07:49.191Z,3.87
2018-06-19T18:10:16.709Z,3.92
2018-06-19T18:12:44.225Z,4.75
2018-06-19T18:15:11.667Z,5.10
2018-06-19T18:17:39.168Z,5.10
2018-06-19T18:20:06.644Z,5.85
2018-06-19T18:22:34.161Z,4.32
2018-06-19T18:25:01.704Z,5.85
2018-06-19T18:27:29.135Z,5.70
2018-06-19T18:29:56.687Z,4.75
2018-06-19T18:32:24.148Z,7.07
2018-06-19T18:34:51.587Z,5.60
2018-06-19T18:37:18.996Z,5.53
2018-06-19T18:39:46.461Z,6.10
2018-06-19T18:42:14.318Z,5.43
2018-06-19T18:44:41.810Z,5.47
2018-06-19T18:47:09.383Z,5.45
2018-06-19T18:49:36.895Z,5.57
2018-06-19T18:52:04.373Z,6.12
2018-06-19T18:54:31.946Z,4.93
2018-06-19T18:56:59.347Z,5.30
2018-06-19T18:59:26.829Z,4.57
2018-06-19T19:01:54.265Z,4.35
2018-06-19T19:04:21.846Z,5.97
2018-06-19T19:06:49.259Z,6.90
2018-06-19T19:09:16.711Z,5.70
2018-06-19T19:11:44.244Z,5.55
2018-06-19T19:14:11.703Z,4.95
2018-06-19T19:19:36.215Z,6.68
2018-06-19T19:22:03.726Z,6.90
2018-06-19T19:24:31.209Z,7.68
2018-06-19T19:26:58.659Z,7.85
2018-06-19T19:29:31.684Z,6.05
2018-06-19T19:31:59.209Z,6.70
2018-06-19T19:34:26.724Z,5.97
2018-06-19T19:36:54.224Z,6.22
2018-06-19T19:39:24.089Z,5.70
2018-06-19T19:41:51.586Z,7.18
2018-06-19T19:44:19.031Z,5.40
2018-06-19T19:46:46.437Z,8.82
2018-06-19T19:49:13.879Z,6.75
2018-06-19T19:51:41.341Z,7.37
2018-06-19T19:54:08.824Z,7.57
2018-06-19T19:56:36.313Z,5.95
2018-06-19T19:59:03.782Z,8.68
2018-06-19T20:01:31.283Z,7.35
2018-06-19T20:03:58.692Z,5.70
2018-06-19T20:06:26.235Z,5.93
2018-06-19T20:08:53.651Z,4.70
2018-06-19T20:11:21.327Z,5.03
2018-06-19T20:13:48.822Z,4.80
2018-06-19T20:16:16.450Z,5.47
2018-06-19T20:18:44.007Z,5.55
2018-06-19T20:21:11.531Z,8.00
2018-06-19T20:23:39.021Z,5.53
2018-06-19T20:26:06.464Z,5.50
2018-06-19T20:28:33.949Z,5.40
2018-06-19T20:31:01.367Z,5.57
2018-06-19T20:33:28.837Z,4.75
2018-06-19T20:35:56.331Z,5.82
2018-06-19T20:38:24.658Z,7.47
2018-06-19T20:40:52.101Z,4.40
2018-06-19T20:43:19.600Z,6.45
2018-06-19T20:45:47.076Z,4.75
2018-06-19T20:48:14.540Z,4.70
2018-06-19T20:50:41.951Z,5.70
2018-06-19T20:53:09.500Z,5.60
2018-06-19T20:55:36.974Z,5.70
2018-06-19T20:58:04.452Z,5.37
2018-06-19T21:00:31.917Z,7.22
2018-06-19T21:02:59.406Z,6.25
2018-06-19T21:05:26.890Z,5.95
2018-06-19T21:07:54.392Z,6.90
2018-06-19T21:10:21.855Z,5.25
2018-06-19T21:12:49.310Z,5.60
2018-06-19T21:15:16.768Z,4.45
2018-06-19T21:17:44.211Z,4.30
2018-06-19T21:20:11.733Z,5.82
2018-06-19T21:22:39.214Z,5.57
2018-06-19T21:25:06.672Z,5.53
2018-06-19T21:27:34.204Z,4.78
2018-06-19T21:30:01.776Z,4.43
2018-06-19T21:32:29.223Z,5.30
2018-06-19T21:34:56.854Z,5.62
2018-06-19T21:37:24.962Z,4.65
2018-06-19T21:39:52.507Z,5.40
2018-06-19T21:42:20.170Z,6.43
2018-06-19T21:44:47.855Z,5.10
2018-06-19T21:47:15.363Z,4.93
2018-06-19T21:49:42.764Z,5.10
2018-06-19T21:52:10.194Z,5.25
2018-06-19T21:54:37.698Z,3.60
2018-06-19T21:57:05.267Z,5.03
2018-06-19T21:59:32.768Z,5.12
2018-06-19T22:02:00.173Z,5.00
2018-06-19T22:04:27.616Z,5.22
2018-06-19T22:06:55.064Z,4.70
2018-06-19T22:09:22.554Z,4.47
2018-06-19T22:11:50.011Z,4.65
2018-06-19T22:14:17.484Z,3.72
2018-06-19T22:16:44.974Z,4.10
2018-06-19T22:19:12.470Z,3.58
2018-06-19T22:21:39.886Z,5.65
2018-06-19T22:24:07.375Z,3.80
2018-06-19T22:26:34.782Z,5.05
2018-06-19T22:29:02.333Z,4.68
2018-06-19T22:31:29.799Z,5.37
2018-06-19T22:33:57.430Z,5.93
2018-06-19T22:36:24.936Z,5.05
2018-06-19T22:38:52.515Z,6.03
2018-06-19T22:41:19.957Z,4.68
2018-06-19T22:43:47.386Z,4.68
2018-06-19T22:46:14.862Z,6.07
2018-06-19T22:48:42.307Z,5.75
2018-06-19T22:51:09.752Z,5.75
2018-06-19T22:53:37.194Z,6.57
2018-06-19T22:56:04.640Z,4.80
2018-06-19T22:58:32.207Z,7.25
2018-06-19T23:00:59.657Z,6.53
2018-06-19T23:03:27.092Z,5.50
2018-06-19T23:05:54.498Z,5.00
2018-06-19T23:08:21.951Z,4.80
2018-06-19T23:10:49.370Z,4.50
2018-06-19T23:13:16.776Z,5.30
2018-06-19T23:15:44.208Z,6.10
2018-06-19T23:18:11.665Z,5.25
2018-06-19T23:20:39.083Z,5.37
2018-06-19T23:23:06.591Z,4.97
2018-06-19T23:25:34.059Z,5.40
2018-06-19T23:28:01.550Z,4.90
2018-06-19T23:30:29.007Z,6.28
2018-06-19T23:32:56.479Z,4.53
2018-06-19T23:35:24.152Z,3.70
2018-06-19T23:37:51.627Z,5.68
2018-06-19T23:40:19.139Z,5.68
2018-06-19T23:42:46.624Z,5.32
2018-06-19T23:45:14.052Z,5.32
2018-06-19T23:47:41.504Z,6.10
2018-06-19T23:50:08.944Z,4.30
2018-06-19T23:52:36.356Z,5.70
2018-06-19T23:55:03.848Z,4.60
2018-06-19T23:57:31.353Z,5.00
2018-06-19T23:59:58.791Z,5.07
